Bandirma, Band?rma Airport (LTBG)

NameBand?rma Airport
CityBandirma
CountryTurkey
ICAOLTBG
IATABDM
Altitude52 m
CoordinatesGoogle Map
Live Air TrafficLiveATC.net
METARLTBG 180150Z 30003KT 280V340 CAVOK 18/17 Q1009 NOSIG RMK RWY18 01007KT
2019-07-18 01:50:00 Wind: West-Northwest (300°) 1.54 m/s - Visibility: > 10000 m - Weather: CAVOK - Temperature: 18 °C - Dew point: 17 °C - Humidity: 93.9% - Pressure: 1009 hPa

Sorry, no flights used the airport in this database.